Latest Coastal Weather Observations for Gladstone

IDQ60701

Issued at 3:02 am EST Saturday 31 January 2015 (issued every 10 minutes, with the page automatically refreshed every 10 minutes)

About coastal observations | Map of coastal stations | Coastal observations for QLD | Marine services | Other Formats
Station Details ID: 039123 Name: GLADSTONE RADAR Lat: -23.86 Lon: 151.26 Height: 74.5 m
Data from the previous 72 hours. | See also: Recent months at Gladstone
Date/Time
EST
Temp

°C
Wind Pressure Rain
since 9am
mm
Weather Cloud Vis
km
Sea
Height
m
Swell
Dir
 
Speed
knots
Gust
knots
hPa Trend Height
m
Period
s
Dir
31/03:00am 23.4 S 5 6 1006.8 - 0.0 - - - - - - -
31/02:30am 23.6 SSE 5 7 1006.6 - 0.0 - - - - - - -
31/02:00am 23.5 SE 6 7 1006.7 - 0.0 - - - - - - -
31/01:30am 23.5 SE 6 7 1006.9 - 0.0 - - - - - - -
31/01:00am 23.7 SE 5 7 1007.2 - 0.0 - - - - - - -
31/12:30am 24.2 SSE 5 7 1007.8 - 0.0 - - - - - - -
31/12:00am 24.5 ENE 5 8 1008.1 - 0.0 - - - - - - -
 
Date/Time
EST
Temp

°C
Wind Pressure Rain
since 9am
mm
Weather Cloud Vis
km
Sea
Height
m
Swell
Dir
 
Speed
knots
Gust
knots
hPa Trend Height
m
Period
s
Dir
30/11:30pm 24.6 ENE 5 7 1008.5 - 0.0 - - - - - - -
30/11:00pm 24.8 ENE 7 10 1008.6 - 0.0 - - - - - - -
30/10:30pm 24.7 ENE 8 11 1008.4 - 0.0 - - - - - - -
30/10:00pm 24.8 ENE 7 10 1008.4 - 0.0 - - - - - - -
30/09:30pm 24.7 ENE 6 9 1008.3 - 0.0 - - - - - - -
30/09:00pm 24.9 ENE 8 11 1008.0 - 0.0 - - - - - - -
30/08:30pm 24.9 ENE 7 10 1007.9 - 0.0 - - - - - - -
30/08:00pm 25.1 ENE 9 12 1007.6 - 0.0 - - - - - - -
30/07:30pm 25.1 ENE 8 11 1007.5 - 0.0 - - - - - - -
30/07:00pm 25.3 ENE 8 10 1007.2 - 0.0 - - - - - - -
30/06:30pm 25.8 ENE 9 13 1006.8 - 0.0 - - - - - - -
30/06:00pm 26.2 ENE 9 13 1006.4 - 0.0 - - - - - - -
30/05:30pm 27.0 ENE 11 16 1006.2 - 0.0 - - - - - - -
30/05:00pm 28.0 ENE 11 16 1005.9 - 0.0 - - - - - - -
30/04:30pm 28.5 ENE 10 14 1005.9 - 0.0 - - - - - - -
30/04:00pm 29.4 ENE 10 15 1005.9 - 0.0 - - - - - - -
30/03:30pm 27.5 ENE 11 15 1006.1 - 0.0 - - - - - - -
30/03:00pm 28.1 ENE 10 15 1006.4 - 0.0 - - - - - - -
30/02:30pm 28.7 ENE 13 19 1006.4 - 0.0 - - - - - - -
30/02:00pm 29.6 ENE 12 17 1006.7 - 0.0 - - - - - - -
30/01:30pm 29.9 ENE 14 19 1007.0 - 0.0 - - - - - - -
30/01:00pm 30.2 ENE 13 18 1007.2 - 0.0 - - - - - - -
30/12:30pm 29.7 ENE 12 19 1007.6 - 0.0 - - - - - - -
30/12:00pm 30.2 ENE 11 17 1008.0 - 0.0 - - - - - - -
30/11:30am 29.7 ENE 12 16 1008.4 - 0.0 - - - - - - -
30/11:00am 30.0 E 12 19 1008.6 - 0.0 - - - - - - -
30/10:30am 28.7 E 13 18 1008.5 - 0.0 - - - - - - -
30/10:00am 27.7 ESE 12 19 1008.6 - 0.0 - - - - - - -
30/09:30am 27.3 ESE 10 18 1008.7 - 0.0 - - - - - - -
30/09:00am 27.2 SE 11 15 1008.6 - 6.4 - - - - - - -
30/08:30am 27.1 ESE 10 16 1008.7 - 6.4 - - - - - - -
30/08:00am 26.3 SE 8 13 1008.5 - 6.4 - - - - - - -
30/07:30am 25.1 SE 10 15 1008.4 - 6.4 - - - - - - -
30/07:00am 24.5 SSE 9 13 1008.1 - 6.4 - - - - - - -
30/06:30am 23.4 SSE 8 13 1007.7 - 6.4 - - - - - - -
30/06:00am 22.6 S 7 13 1007.4 - 6.4 - - - - - - -
30/05:30am 22.3 S 8 11 1007.1 - 6.4 - - - - - - -
30/05:00am 22.3 S 8 12 1006.7 - 6.4 - - - - - - -
30/04:30am 22.3 S 7 11 1006.7 - 6.4 - - - - - - -
30/04:00am 22.3 S 7 11 1006.6 - 6.4 - - - - - - -
30/03:30am 22.2 S 8 11 1006.8 - 6.4 - - - - - - -
30/03:00am 22.5 SE 9 12 1006.8 - 6.4 - - - - - - -
30/02:30am 22.3 SE 9 14 1007.1 - 6.4 - - - - - - -
30/02:00am 22.6 SSE 8 13 1007.1 - 6.4 - - - - - - -
30/01:30am 22.8 SSE 8 12 1007.3 - 6.4 - - - - - - -
30/01:00am 23.0 SSE 8 13 1007.6 - 6.4 - - - - - - -
30/12:30am 23.0 SSE 8 12 1007.7 - 6.4 - - - - - - -
30/12:00am 23.3 SSE 10 14 1007.9 - 6.4 - - - - - - -
 
Date/Time
EST
Temp

°C
Wind Pressure Rain
since 9am
mm
Weather Cloud Vis
km
Sea
Height
m
Swell
Dir
 
Speed
knots
Gust
knots
hPa Trend Height
m
Period
s
Dir
29/11:30pm 23.4 SSE 10 16 1008.0 - 6.4 - - - - - - -
29/11:00pm 23.6 SE 10 14 1008.4 - 6.4 - - - - - - -
29/10:30pm 23.7 SE 9 13 1008.5 - 6.4 - - - - - - -
29/10:00pm 23.9 SE 9 12 1008.4 - 6.4 - - - - - - -
29/09:30pm 24.2 SE 10 15 1008.1 - 6.4 - - - - - - -
29/09:00pm 24.3 SE 9 15 1007.9 - 6.4 - - - - - - -
29/08:30pm 24.2 SE 10 13 1007.7 - 6.4 - - - - - - -
29/08:00pm 24.3 SE 9 13 1007.5 - 6.2 - - - - - - -
29/07:30pm 24.3 SE 9 14 1007.5 - 6.2 - - - - - - -
29/07:00pm 24.2 SE 10 12 1007.1 - 6.2 - - - - - - -
29/06:30pm 24.2 SE 8 11 1006.6 - 6.2 - - - - - - -
29/06:00pm 24.2 SE 10 18 1006.3 - 6.2 - - - - - - -
29/05:30pm 25.1 ESE 10 18 1005.9 - 6.2 - - - - - - -
29/05:00pm 25.8 ESE 14 19 1005.5 - 6.2 - - - - - - -
29/04:30pm 25.8 SE 8 11 1005.4 - 6.2 - - - - - - -
29/04:00pm 26.1 SE 7 10 1005.3 - 6.2 - - - - - - -
29/03:30pm 27.3 ESE 11 16 1005.3 - 6.2 - - - - - - -
29/03:00pm 26.3 ESE 8 13 1005.2 - 6.2 - - - - - - -
29/02:30pm 25.2 ESE 9 12 1005.4 - 6.2 - - - - - - -
29/02:00pm 24.9 E 7 9 1005.5 - 5.0 - - - - - - -
29/01:30pm 27.2 E 9 15 1005.7 - 0.0 - - - - - - -
29/01:00pm 27.8 ESE 8 12 1005.8 - 0.0 - - - - - - -
29/12:30pm 27.4 ESE 8 13 1006.1 - 0.0 - - - - - - -
29/12:00pm 28.0 ESE 8 14 1006.3 - 0.0 - - - - - - -
29/11:30am 28.0 SE 9 13 1006.4 - 0.0 - - - - - - -
29/11:00am 26.9 SE 11 17 1006.6 - 0.0 - - - - - - -
29/10:30am 26.7 SE 8 15 1006.8 - 0.0 - - - - - - -
29/10:00am 25.1 SE 11 17 1006.9 - 0.0 - - - - - - -
29/09:30am 24.9 SSE 11 17 1006.9 - 0.0 - - - - - - -
29/09:00am 24.2 SSE 11 19 1006.8 - 3.4 - - - - - - -
29/08:30am 24.2 SSE 8 14 1006.8 - 3.4 - - - - - - -
29/08:00am 24.3 SSE 7 14 1006.7 - 3.4 - - - - - - -
29/07:30am 23.5 SSE 9 15 1006.3 - 3.4 - - - - - - -
29/07:00am 22.7 SSE 10 15 1006.3 - 3.4 - - - - - - -
29/06:30am 22.6 SSE 10 18 1006.1 - 3.4 - - - - - - -
29/06:00am 22.3 SSE 9 14 1005.6 - 3.4 - - - - - - -
29/05:30am 22.0 SSE 9 15 1005.1 - 3.4 - - - - - - -
29/05:00am 22.4 SSE 10 19 1004.7 - 3.4 - - - - - - -
29/04:30am 22.3 SSE 10 15 1004.4 - 3.4 - - - - - - -
29/04:00am 22.4 SSE 11 16 1004.4 - 3.4 - - - - - - -
29/03:30am 22.4 SSE 9 15 1004.5 - 3.4 - - - - - - -
29/03:00am 22.1 SSE 8 16 1004.6 - 3.4 - - - - - - -
29/02:30am 21.8 SE 9 14 1004.3 - 3.4 - - - - - - -
29/02:00am 21.5 SE 11 16 1004.3 - 3.4 - - - - - - -
29/01:30am 22.6 SE 11 18 1004.6 - 2.0 - - - - - - -
29/01:00am 22.6 SE 10 14 1004.8 - 2.0 - - - - - - -
29/12:30am 22.6 SSE 8 14 1005.2 - 2.0 - - - - - - -
29/12:00am 22.7 SE 9 15 1005.4 - 2.0 - - - - - - -
 
Date/Time
EST
Temp

°C
Wind Pressure Rain
since 9am
mm
Weather Cloud Vis
km
Sea
Height
m
Swell
Dir
 
Speed
knots
Gust
knots
hPa Trend Height
m
Period
s
Dir
28/11:30pm 22.7 SSE 10 15 1005.8 - 1.8 - - - - - - -
28/11:00pm 22.7 SE 11 18 1005.5 - 1.8 - - - - - - -
28/10:30pm 22.9 SE 12 18 1005.4 - 1.8 - - - - - - -
28/10:00pm 22.9 SE 10 16 1005.7 - 1.8 - - - - - - -
28/09:30pm 23.2 SE 11 17 1005.7 - 1.8 - - - - - - -
28/09:00pm 23.6 SE 12 17 1004.7 - 1.8 - - - - - - -
28/08:30pm 23.9 SE 9 13 1004.7 - 1.8 - - - - - - -
28/08:00pm 23.9 SE 9 14 1004.4 - 1.8 - - - - - - -
28/07:30pm 24.0 SE 10 17 1004.4 - 1.8 - - - - - - -
28/07:00pm 24.0 SE 8 13 1004.2 - 1.8 - - - - - - -
28/06:30pm 23.8 SE 8 12 1004.1 - 1.8 - - - - - - -
28/06:00pm 24.1 SSE 8 12 1003.8 - 1.8 - - - - - - -
28/05:30pm 24.0 SSE 7 11 1003.4 - 1.8 - - - - - - -
28/05:00pm 24.2 SSE 9 13 1002.9 - 1.8 - - - - - - -
28/04:30pm 23.9 SSE 9 12 1002.4 - 1.8 - - - - - - -
28/04:00pm 23.9 SE 9 14 1002.6 - 1.0 - - - - - - -
28/03:30pm 24.1 SE 9 14 1002.7 - 0.6 - - - - - - -
28/03:00pm 25.4 S 9 18 1003.5 - 0.0 - - - - - - -
28/02:30pm 26.7 ESE 13 22 1003.0 - 0.0 - - - - - - -
28/02:00pm 26.8 E 17 23 1002.6 - 0.0 - - - - - - -
28/01:30pm 26.9 E 17 22 1002.5 - 0.0 - - - - - - -
28/01:00pm 27.1 E 17 24 1002.6 - 0.0 - - - - - - -
28/12:55pm 27.2 E 16 26 1002.7 - 0.0 - - - - - - -
28/12:30pm 27.4 E 20 26 1002.4 - 0.0 - - - - - - -
28/12:00pm 28.5 E 18 26 1002.4 - 0.0 - - - - - - -
28/11:30am 29.4 E 19 26 1002.7 - 0.0 - - - - - - -
28/11:00am 27.6 E 17 25 1003.1 - 0.0 - - - - - - -
28/10:30am 28.3 E 20 27 1003.3 - 0.0 - - - - - - -
28/10:00am 27.1 E 17 26 1003.4 - 0.0 - - - - - - -
28/09:58am 27.3 E 16 26 1003.3 - 0.0 - - - - - - -
28/09:30am 26.7 E 15 23 1003.3 - 0.0 - - - - - - -
28/09:00am 25.9 ESE 11 15 1003.5 - 4.6 - - - - - - -
28/08:30am 25.8 SE 10 15 1003.4 - 4.6 - - - - - - -
28/08:00am 25.2 ESE 10 17 1003.1 - 4.6 - - - - - - -
28/07:30am 24.0 SE 10 15 1003.1 - 3.8 - - - - - - -
28/07:00am 25.2 SE 11 16 1002.9 - 1.6 - - - - - - -
28/06:30am 24.5 SE 7 12 1002.5 - 1.6 - - - - - - -
28/06:00am 24.7 SE 10 15 1002.3 - 1.4 - - - - - - -
28/05:30am 24.4 E 16 23 1001.8 - 1.2 - - - - - - -
28/05:01am 24.8 E 16 27 1001.4 - 0.8 - - - - - - -
28/05:00am 24.7 E 15 24 1001.6 - 0.8 - - - - - - -
28/04:30am 26.2 E 14 20 1001.5 - 0.2 - - - - - - -
28/04:00am 26.0 E 12 17 1001.6 - 0.2 - - - - - - -
28/03:30am 26.1 E 12 17 1001.5 - 0.2 - - - - - - -

Other Formats:

Comma delimited format used in spreadsheet applications
http://www.bom.gov.au/fwo/IDQ60701/IDQ60701.94380.axf

JavaScript Object Notation format (JSON) in row-major order
http://www.bom.gov.au/fwo/IDQ60701/IDQ60701.94380.json